Time;durP1;ratioP1;P1;durP2;ratioP2;P2;SDS_P1;SDS_P2;PMS_P1;PMS_P2;Temp;Humidity;BMP_temperature;BMP_pressure;BME280_temperature;BME280_humidity;BME280_pressure;Samples;Min_cycle;Max_cycle;Signal;HPM_P1;HPM_P2
2021/10/13 00:00:04;;;;;;;11.80;8.50;;;6.80;99.90;;;;;;5100030;28;20458;-74
2021/10/13 00:02:30;;;;;;;15.33;12.47;;;6.80;99.90;;;;;;5092915;28;20453;-74
2021/10/13 00:04:55;;;;;;;14.33;11.80;;;6.80;99.90;;;;;;5092541;28;20404;-74
2021/10/13 00:07:21;;;;;;;20.13;13.37;;;6.70;99.90;;;;;;5092739;28;20589;-74
2021/10/13 00:09:46;;;;;;;16.67;11.60;;;6.70;99.90;;;;;;5102894;28;20180;-74
2021/10/13 00:12:12;;;;;;;21.73;14.80;;;6.80;99.90;;;;;;5093557;28;20203;-74
2021/10/13 00:14:37;;;;;;;22.87;13.53;;;6.80;99.90;;;;;;5092654;28;20166;-74
2021/10/13 00:17:05;;;;;;;19.73;14.03;;;6.80;99.90;;;;;;5092585;28;20698;-74
2021/10/13 00:19:31;;;;;;;18.17;12.40;;;6.80;99.90;;;;;;5092838;28;20649;-75
2021/10/13 00:21:57;;;;;;;16.77;12.87;;;6.80;99.90;;;;;;5092484;28;20403;-74
2021/10/13 00:24:22;;;;;;;12.47;11.07;;;6.80;99.90;;;;;;5092508;28;20831;-74
2021/10/13 00:26:48;;;;;;;14.50;11.30;;;6.80;99.90;;;;;;5092505;28;20192;-74
2021/10/13 00:29:14;;;;;;;17.40;10.67;;;6.80;99.90;;;;;;5096898;28;20433;-74
2021/10/13 00:31:39;;;;;;;12.83;9.77;;;6.80;99.90;;;;;;5094646;28;20564;-74
2021/10/13 00:34:05;;;;;;;14.90;11.43;;;6.70;99.90;;;;;;5092349;28;20559;-74
2021/10/13 00:36:31;;;;;;;12.30;10.10;;;6.70;99.90;;;;;;5092219;28;20211;-74
2021/10/13 00:38:56;;;;;;;14.27;10.57;;;6.70;99.90;;;;;;5091993;28;20160;-74
2021/10/13 00:41:22;;;;;;;12.37;10.03;;;6.70;99.90;;;;;;5092986;28;20287;-74
2021/10/13 00:43:48;;;;;;;16.47;10.63;;;6.70;99.90;;;;;;5078891;28;20184;-74
2021/10/13 00:46:13;;;;;;;14.37;10.13;;;6.70;99.90;;;;;;5090441;28;20176;-74
2021/10/13 00:48:39;;;;;;;13.37;10.07;;;6.70;99.90;;;;;;5092268;28;20620;-74
2021/10/13 00:51:05;;;;;;;16.43;11.43;;;6.70;99.90;;;;;;5103173;28;20236;-74
2021/10/13 00:53:30;;;;;;;12.53;10.13;;;6.70;99.90;;;;;;5112165;28;20216;-74
2021/10/13 00:55:57;;;;;;;13.90;9.60;;;6.70;99.90;;;;;;5111975;28;20193;-74
2021/10/13 00:58:24;;;;;;;11.77;10.27;;;6.60;99.90;;;;;;5112542;28;20202;-74
2021/10/13 01:00:57;;;;;;;13.83;9.50;;;6.60;99.90;;;;;;5103454;28;20418;-74
2021/10/13 01:06:23;;;;;;;11.67;9.30;;;6.60;99.90;;;;;;5069665;28;20518;-75
2021/10/13 01:09:13;;;;;;;10.33;9.17;;;6.60;99.90;;;;;;5069849;28;20427;-75
2021/10/13 01:12:10;;;;;;;11.23;9.90;;;6.60;99.90;;;;;;5068536;28;20749;-75
2021/10/13 01:14:52;;;;;;;14.47;10.20;;;6.60;99.90;;;;;;5068702;28;20421;-75
2021/10/13 01:17:30;;;;;;;10.87;9.70;;;6.60;99.90;;;;;;5069651;28;20516;-75
2021/10/13 01:20:11;;;;;;;12.73;9.87;;;6.60;99.90;;;;;;5053757;28;20427;-75
2021/10/13 01:28:13;;;;;;;14.73;9.80;;;6.50;99.90;;;;;;5089852;28;20521;-75
2021/10/13 01:30:44;;;;;;;11.90;10.20;;;6.50;99.90;;;;;;5087168;28;20395;-75
2021/10/13 01:33:24;;;;;;;12.90;10.40;;;6.50;99.90;;;;;;5069883;28;20880;-75
2021/10/13 01:35:53;;;;;;;10.83;9.33;;;6.50;99.90;;;;;;5069467;28;20419;-75
2021/10/13 01:38:23;;;;;;;10.27;9.17;;;6.50;99.90;;;;;;5069531;28;20404;-75
2021/10/13 01:40:53;;;;;;;11.67;9.70;;;6.50;99.90;;;;;;5069338;28;20400;-75
2021/10/13 01:43:20;;;;;;;14.90;9.47;;;6.50;99.90;;;;;;5060410;28;20792;-75
2021/10/13 01:45:48;;;;;;;13.87;9.57;;;6.50;99.90;;;;;;5049469;28;20428;-75
2021/10/13 01:48:14;;;;;;;12.13;9.13;;;6.50;99.90;;;;;;5049588;28;20423;-75
2021/10/13 01:50:40;;;;;;;11.43;9.00;;;6.50;99.90;;;;;;5053691;28;20475;-75
2021/10/13 01:53:06;;;;;;;10.47;8.83;;;6.50;99.90;;;;;;5069164;28;20463;-75
2021/10/13 01:55:33;;;;;;;12.97;8.53;;;6.50;99.90;;;;;;5069104;28;20420;-75
2021/10/13 01:58:02;;;;;;;9.70;8.70;;;6.50;99.90;;;;;;5069319;28;20400;-75
2021/10/13 02:00:28;;;;;;;11.63;10.33;;;6.40;99.90;;;;;;5068989;28;20403;-75
2021/10/13 02:02:55;;;;;;;13.87;10.37;;;6.40;99.90;;;;;;5069027;28;20395;-75
2021/10/13 02:05:22;;;;;;;12.87;9.70;;;6.40;99.90;;;;;;5069126;28;20437;-75
2021/10/13 02:07:49;;;;;;;14.90;11.23;;;6.40;99.90;;;;;;5068918;28;20445;-75
2021/10/13 02:10:20;;;;;;;16.07;11.57;;;6.30;99.90;;;;;;5068772;28;20497;-75
2021/10/13 02:12:47;;;;;;;20.03;11.60;;;6.30;99.90;;;;;;5049035;28;20437;-75
2021/10/13 02:15:15;;;;;;;12.77;10.77;;;6.40;99.90;;;;;;5049056;28;20453;-75
2021/10/13 02:17:47;;;;;;;13.30;9.60;;;6.30;99.90;;;;;;5048921;28;20487;-75
2021/10/13 02:20:14;;;;;;;14.03;10.70;;;6.30;99.90;;;;;;5049531;28;20430;-75
2021/10/13 02:22:46;;;;;;;12.37;11.20;;;6.30;99.90;;;;;;5068594;28;20776;-75
2021/10/13 02:25:12;;;;;;;12.80;11.50;;;6.30;99.90;;;;;;5068726;28;20396;-75
2021/10/13 02:27:45;;;;;;;12.30;10.53;;;6.30;99.90;;;;;;5068283;28;20999;-75
2021/10/13 02:30:12;;;;;;;12.77;10.50;;;6.30;99.90;;;;;;5068333;28;20169;-75
2021/10/13 02:32:37;;;;;;;11.77;10.40;;;6.30;99.90;;;;;;5068259;28;20518;-75
2021/10/13 02:35:04;;;;;;;12.97;11.40;;;6.30;99.90;;;;;;5068436;28;20430;-75
2021/10/13 02:37:30;;;;;;;12.20;11.00;;;6.30;99.90;;;;;;5066445;28;20189;-75
2021/10/13 02:39:56;;;;;;;14.90;11.27;;;6.30;99.90;;;;;;5054758;28;20902;-75
2021/10/13 02:42:21;;;;;;;12.47;11.17;;;6.30;99.90;;;;;;5053623;28;20189;-75
2021/10/13 02:44:47;;;;;;;11.57;10.37;;;6.30;99.90;;;;;;5050182;28;20196;-75
2021/10/13 02:47:22;;;;;;;17.50;11.40;;;6.40;99.90;;;;;;5054900;28;20195;-75
2021/10/13 02:55:27;;;;;;;12.67;10.00;;;6.40;99.90;;;;;;5070195;28;20583;-78
2021/10/13 02:58:14;;;;;;;12.63;11.30;;;6.60;99.90;;;;;;5052328;28;20407;-78
2021/10/13 03:00:40;;;;;;;13.17;10.53;;;6.60;99.90;;;;;;5063434;28;20420;-78
2021/10/13 03:03:14;;;;;;;14.53;10.80;;;6.70;99.90;;;;;;5053164;28;20421;-78
2021/10/13 03:05:43;;;;;;;11.60;10.13;;;6.70;99.90;;;;;;5069731;28;20835;-78
2021/10/13 03:08:11;;;;;;;13.37;10.60;;;6.70;99.90;;;;;;5069397;28;20416;-78
2021/10/13 03:10:37;;;;;;;9.67;8.63;;;6.80;99.90;;;;;;5069622;28;20492;-78
2021/10/13 03:13:06;;;;;;;17.67;10.47;;;6.80;99.90;;;;;;5069352;28;20451;-78
2021/10/13 03:15:33;;;;;;;10.80;9.20;;;6.90;99.90;;;;;;5069029;28;20392;-77
2021/10/13 03:17:59;;;;;;;10.17;8.50;;;6.90;99.90;;;;;;5063555;28;20425;-77
2021/10/13 03:20:27;;;;;;;11.63;9.73;;;7.00;99.90;;;;;;5069355;28;20543;-78
2021/10/13 03:22:57;;;;;;;15.13;10.23;;;7.00;99.90;;;;;;5069376;28;20481;-78
2021/10/13 03:25:25;;;;;;;13.50;11.23;;;7.10;99.90;;;;;;5069244;28;20459;-78
2021/10/13 03:27:51;;;;;;;14.87;12.60;;;7.10;99.90;;;;;;5068952;28;20867;-78
2021/10/13 03:30:16;;;;;;;18.70;14.47;;;7.10;99.90;;;;;;5049173;28;20432;-78
2021/10/13 03:32:44;;;;;;;22.83;15.17;;;7.20;99.90;;;;;;5048941;28;20448;-77
2021/10/13 03:35:18;;;;;;;25.70;16.90;;;7.20;99.90;;;;;;5050018;28;20217;-78
2021/10/13 03:37:44;;;;;;;34.20;19.27;;;7.20;99.90;;;;;;5063351;28;20436;-77
2021/10/13 03:40:10;;;;;;;39.40;21.87;;;7.30;99.90;;;;;;5054468;28;20432;-78
2021/10/13 03:42:35;;;;;;;53.97;24.47;;;7.30;99.90;;;;;;5063883;28;20247;-78
2021/10/13 03:45:01;;;;;;;45.93;23.43;;;7.30;99.90;;;;;;5048039;28;20771;-78
2021/10/13 03:47:27;;;;;;;51.47;26.57;;;7.30;99.90;;;;;;5048679;28;20258;-78
2021/10/13 03:49:52;;;;;;;48.07;26.20;;;7.40;99.90;;;;;;5048944;28;20190;-77
2021/10/13 03:52:18;;;;;;;61.17;26.57;;;7.40;99.90;;;;;;5049266;28;20191;-77
2021/10/13 03:54:43;;;;;;;56.60;25.90;;;7.40;99.90;;;;;;5048580;28;20591;-78
2021/10/13 03:57:09;;;;;;;51.77;27.53;;;7.40;99.90;;;;;;5064586;28;20705;-78
2021/10/13 03:59:36;;;;;;;52.03;26.83;;;7.40;99.90;;;;;;5054285;28;20226;-78
2021/10/13 04:02:01;;;;;;;44.83;25.30;;;7.50;99.90;;;;;;5047436;28;20746;-78
2021/10/13 04:04:27;;;;;;;38.83;23.87;;;7.50;99.90;;;;;;5044860;28;20425;-78
2021/10/13 04:06:53;;;;;;;44.23;23.13;;;7.50;99.90;;;;;;5033340;28;20172;-78
2021/10/13 04:09:18;;;;;;;45.23;24.97;;;7.50;99.90;;;;;;5033635;28;20675;-78
2021/10/13 04:11:43;;;;;;;47.90;25.33;;;7.60;99.90;;;;;;5033559;28;20171;-78
2021/10/13 04:14:09;;;;;;;42.43;24.30;;;7.60;99.90;;;;;;5033455;28;20318;-78
2021/10/13 04:16:35;;;;;;;50.27;25.10;;;7.60;99.90;;;;;;5033095;28;20533;-78
2021/10/13 04:19:00;;;;;;;47.13;25.90;;;7.60;99.90;;;;;;5039933;28;20532;-78
2021/10/13 04:21:26;;;;;;;40.80;24.30;;;7.60;99.90;;;;;;5044306;28;20183;-78
2021/10/13 04:23:51;;;;;;;47.63;26.10;;;7.60;99.90;;;;;;5044141;28;20174;-78
2021/10/13 04:26:17;;;;;;;48.20;26.50;;;7.60;99.90;;;;;;5039485;28;20221;-78
2021/10/13 04:28:42;;;;;;;47.23;25.30;;;7.60;99.90;;;;;;5037431;28;20303;-78
2021/10/13 04:31:08;;;;;;;41.93;25.10;;;7.60;99.90;;;;;;5034514;28;20232;-78
2021/10/13 04:33:33;;;;;;;40.03;26.30;;;7.60;99.90;;;;;;5034803;28;20188;-78
2021/10/13 04:35:59;;;;;;;43.53;25.83;;;7.60;99.90;;;;;;5034583;28;20173;-78
2021/10/13 04:38:25;;;;;;;48.97;27.23;;;7.60;99.90;;;;;;5044613;28;20278;-78
2021/10/13 04:40:50;;;;;;;47.93;24.87;;;7.60;99.90;;;;;;5040270;28;20183;-78
2021/10/13 04:43:16;;;;;;;43.23;24.70;;;7.60;99.90;;;;;;5035850;28;20180;-78
2021/10/13 04:45:41;;;;;;;42.00;24.80;;;7.60;99.90;;;;;;5036417;28;20178;-78
2021/10/13 04:48:07;;;;;;;40.13;24.90;;;7.70;99.90;;;;;;5050631;28;20195;-78
2021/10/13 04:50:32;;;;;;;47.20;27.40;;;7.70;99.90;;;;;;5049169;28;20184;-77
2021/10/13 04:52:58;;;;;;;39.27;23.77;;;7.70;99.90;;;;;;5040440;28;20186;-78
2021/10/13 04:55:24;;;;;;;41.93;25.97;;;7.70;99.90;;;;;;5049024;28;20175;-78
2021/10/13 04:57:49;;;;;;;47.47;27.30;;;7.70;99.90;;;;;;5047025;28;20183;-77
2021/10/13 05:00:15;;;;;;;46.90;26.53;;;7.70;99.90;;;;;;5051639;28;20419;-78
2021/10/13 05:02:41;;;;;;;41.67;25.10;;;7.70;99.90;;;;;;5053948;28;20166;-78
2021/10/13 05:05:06;;;;;;;51.77;25.93;;;7.70;99.90;;;;;;5034220;28;20500;-78
2021/10/13 05:07:32;;;;;;;42.73;25.70;;;7.70;99.90;;;;;;5041843;28;20179;-78
2021/10/13 05:09:57;;;;;;;53.17;29.23;;;7.80;99.90;;;;;;5038648;28;20430;-78
2021/10/13 05:12:23;;;;;;;54.73;30.20;;;7.70;99.90;;;;;;5035215;28;20219;-78
2021/10/13 05:14:49;;;;;;;48.13;28.20;;;7.80;99.90;;;;;;5036528;28;20184;-78
2021/10/13 05:17:14;;;;;;;48.20;29.27;;;7.80;99.90;;;;;;5052055;28;20184;-78
2021/10/13 05:19:40;;;;;;;54.57;28.50;;;7.80;99.90;;;;;;5052165;28;20201;-78
2021/10/13 05:22:05;;;;;;;50.93;28.97;;;7.80;99.90;;;;;;5049830;28;20191;-78
2021/10/13 05:24:31;;;;;;;56.80;28.90;;;7.80;99.90;;;;;;5040699;28;20180;-77
2021/10/13 05:26:57;;;;;;;52.70;29.07;;;7.90;99.90;;;;;;5034590;28;20266;-77
2021/10/13 05:29:22;;;;;;;51.50;30.43;;;7.90;99.90;;;;;;5042367;28;20266;-78
2021/10/13 05:31:48;;;;;;;49.80;26.70;;;7.90;99.90;;;;;;5044123;28;20231;-77
2021/10/13 05:34:13;;;;;;;47.80;29.33;;;7.90;99.90;;;;;;5035576;28;20200;-78
2021/10/13 05:36:39;;;;;;;52.43;28.80;;;8.00;99.90;;;;;;5049910;28;20168;-77
2021/10/13 05:39:04;;;;;;;51.00;28.60;;;8.00;99.90;;;;;;5043913;28;20184;-78
2021/10/13 05:41:30;;;;;;;41.50;27.57;;;8.00;99.90;;;;;;5042732;28;20231;-78
2021/10/13 05:43:55;;;;;;;51.50;29.03;;;8.00;99.90;;;;;;5041204;28;20734;-78
2021/10/13 05:46:21;;;;;;;48.13;27.67;;;8.00;99.90;;;;;;5053615;28;20179;-78
2021/10/13 05:48:46;;;;;;;48.77;27.23;;;8.00;99.90;;;;;;5053872;28;20160;-78
2021/10/13 05:51:12;;;;;;;50.53;28.53;;;8.00;99.90;;;;;;5036967;28;20243;-78
2021/10/13 05:53:37;;;;;;;48.17;28.10;;;8.00;99.90;;;;;;5049505;28;20235;-76
2021/10/13 05:56:03;;;;;;;49.73;29.53;;;8.00;99.90;;;;;;5052085;28;20168;-76
2021/10/13 05:58:29;;;;;;;59.23;29.40;;;8.10;99.90;;;;;;5042629;28;20164;-77
2021/10/13 06:00:55;;;;;;;57.07;29.37;;;8.10;99.90;;;;;;5033760;28;20184;-76
2021/10/13 06:03:21;;;;;;;53.70;31.20;;;8.10;99.90;;;;;;5038678;28;20186;-77
2021/10/13 06:05:48;;;;;;;61.60;30.97;;;8.10;99.90;;;;;;5042048;28;20441;-77
2021/10/13 06:08:13;;;;;;;46.73;29.00;;;8.10;99.90;;;;;;5036953;28;20436;-77
2021/10/13 06:10:39;;;;;;;47.47;29.37;;;8.20;99.90;;;;;;5032458;28;20419;-78
2021/10/13 06:13:05;;;;;;;51.30;28.43;;;8.10;99.90;;;;;;5037690;28;20287;-77
2021/10/13 06:15:34;;;;;;;52.67;30.40;;;8.10;99.90;;;;;;5042127;28;20569;-77
2021/10/13 06:18:02;;;;;;;52.83;30.70;;;8.20;99.90;;;;;;5038686;28;20252;-77
2021/10/13 06:20:27;;;;;;;56.50;31.40;;;8.20;99.90;;;;;;5043227;28;20537;-76
2021/10/13 06:22:53;;;;;;;51.50;29.80;;;8.20;99.90;;;;;;5034034;28;20521;-79
2021/10/13 06:25:19;;;;;;;58.77;30.87;;;8.30;99.90;;;;;;5044040;28;20442;-78
2021/10/13 06:27:46;;;;;;;44.27;27.80;;;8.30;99.90;;;;;;5059501;28;20781;-78
2021/10/13 06:30:12;;;;;;;52.20;27.87;;;8.30;99.90;;;;;;5040819;28;20173;-77
2021/10/13 06:32:37;;;;;;;49.63;27.70;;;8.30;99.90;;;;;;5044768;28;20446;-77
2021/10/13 06:35:03;;;;;;;50.17;28.97;;;8.30;99.90;;;;;;5032380;28;20250;-77
2021/10/13 06:37:28;;;;;;;49.80;26.27;;;8.40;99.90;;;;;;5032553;28;20222;-77
2021/10/13 06:39:54;;;;;;;43.23;26.10;;;8.40;99.90;;;;;;5036640;28;20176;-77
2021/10/13 06:42:20;;;;;;;44.67;26.53;;;8.40;99.90;;;;;;5040748;28;20181;-77
2021/10/13 06:44:45;;;;;;;53.73;28.30;;;8.50;99.90;;;;;;5046623;28;20179;-78
2021/10/13 06:47:11;;;;;;;41.87;26.20;;;8.50;99.90;;;;;;5039485;28;20666;-77
2021/10/13 06:49:36;;;;;;;48.47;27.13;;;8.50;99.90;;;;;;5040763;28;20671;-77
2021/10/13 06:52:02;;;;;;;47.93;28.67;;;8.60;99.90;;;;;;5038241;28;20182;-77
2021/10/13 06:54:27;;;;;;;45.80;27.40;;;8.60;99.90;;;;;;5038848;28;20215;-77
2021/10/13 06:56:53;;;;;;;43.60;27.40;;;8.60;99.90;;;;;;5037482;28;20326;-77
2021/10/13 06:59:18;;;;;;;43.67;24.07;;;8.70;99.90;;;;;;5039116;28;20182;-77
2021/10/13 07:01:44;;;;;;;47.03;27.53;;;8.70;99.90;;;;;;5034348;28;20169;-78
2021/10/13 07:04:09;;;;;;;39.50;25.47;;;8.80;99.90;;;;;;5045443;28;20181;-77
2021/10/13 07:06:35;;;;;;;44.93;25.30;;;8.80;99.90;;;;;;5034931;28;20182;-78
2021/10/13 07:09:01;;;;;;;43.63;25.70;;;8.80;99.90;;;;;;5037160;28;20207;-77
2021/10/13 07:11:26;;;;;;;44.53;26.20;;;8.80;99.90;;;;;;5039712;28;20178;-77
2021/10/13 07:13:52;;;;;;;41.70;25.17;;;8.90;99.90;;;;;;5035732;28;20581;-77
2021/10/13 07:16:17;;;;;;;45.63;24.10;;;8.90;99.90;;;;;;5035239;28;20187;-77
2021/10/13 07:18:43;;;;;;;39.20;23.23;;;8.90;99.90;;;;;;5051961;28;20153;-77
2021/10/13 07:21:08;;;;;;;40.23;23.90;;;8.90;99.90;;;;;;5038538;28;20186;-78
2021/10/13 07:23:34;;;;;;;33.93;24.57;;;8.90;99.90;;;;;;5041055;28;20195;-78
2021/10/13 07:25:59;;;;;;;38.00;24.90;;;8.90;99.90;;;;;;5042151;28;20271;-77
2021/10/13 07:28:26;;;;;;;35.67;23.80;;;9.00;99.90;;;;;;5044149;28;20189;-77
2021/10/13 07:30:52;;;;;;;36.53;23.20;;;9.00;99.90;;;;;;5044741;28;20226;-77
2021/10/13 07:33:18;;;;;;;32.47;23.90;;;9.00;99.90;;;;;;5038147;28;20467;-78
2021/10/13 07:35:44;;;;;;;31.80;22.33;;;9.00;99.90;;;;;;5034500;28;20188;-78
2021/10/13 07:38:12;;;;;;;33.23;21.20;;;9.10;99.90;;;;;;5036074;28;20187;-77
2021/10/13 07:40:37;;;;;;;28.73;21.80;;;9.10;99.90;;;;;;5036636;28;20277;-77
2021/10/13 07:43:03;;;;;;;30.33;21.77;;;9.10;99.90;;;;;;5041273;28;20498;-77
2021/10/13 07:45:29;;;;;;;30.23;21.33;;;9.20;99.90;;;;;;5054477;28;20299;-77
2021/10/13 07:47:54;;;;;;;30.47;20.77;;;9.20;99.90;;;;;;5053897;28;20198;-77
2021/10/13 07:50:20;;;;;;;34.63;22.57;;;9.30;99.90;;;;;;5049168;28;20189;-77
2021/10/13 07:52:46;;;;;;;28.37;21.17;;;9.30;99.90;;;;;;5052504;28;20671;-77
2021/10/13 07:55:11;;;;;;;36.17;23.73;;;9.30;99.90;;;;;;5051457;28;20535;-77
2021/10/13 07:57:37;;;;;;;31.43;22.20;;;9.40;99.90;;;;;;5043782;28;20258;-77
2021/10/13 08:00:04;;;;;;;30.30;22.03;;;9.50;99.90;;;;;;5043901;28;20182;-77
2021/10/13 08:02:30;;;;;;;33.10;22.43;;;9.50;99.90;;;;;;5033616;28;20217;-77
2021/10/13 08:04:56;;;;;;;32.60;23.63;;;9.50;99.90;;;;;;5037694;28;20856;-77
2021/10/13 08:07:21;;;;;;;27.50;22.13;;;9.60;99.90;;;;;;5039243;28;20625;-77
2021/10/13 08:09:47;;;;;;;34.00;24.50;;;9.60;99.90;;;;;;5032561;28;20178;-78
2021/10/13 08:12:12;;;;;;;30.07;23.27;;;9.60;99.90;;;;;;5036068;28;20177;-77
2021/10/13 08:14:38;;;;;;;34.23;25.03;;;9.70;99.90;;;;;;5039736;28;20678;-78
2021/10/13 08:17:03;;;;;;;31.70;24.53;;;9.70;99.90;;;;;;5045777;28;20710;-77
2021/10/13 08:19:29;;;;;;;34.10;24.03;;;9.70;99.90;;;;;;5044445;28;20685;-77
2021/10/13 08:21:55;;;;;;;30.97;23.30;;;9.70;99.90;;;;;;5040017;28;20186;-77
2021/10/13 08:24:21;;;;;;;31.30;23.20;;;9.80;99.90;;;;;;5046432;28;20439;-77
2021/10/13 08:26:46;;;;;;;33.30;24.97;;;9.80;99.90;;;;;;5043293;28;20430;-78
2021/10/13 08:29:12;;;;;;;38.43;25.27;;;9.80;99.90;;;;;;5042327;28;20185;-77
2021/10/13 08:31:38;;;;;;;36.47;25.50;;;9.80;99.90;;;;;;5040688;28;20206;-77
2021/10/13 08:34:03;;;;;;;32.53;25.50;;;9.90;99.90;;;;;;5039921;28;20217;-77
2021/10/13 08:36:29;;;;;;;43.40;27.60;;;10.00;99.90;;;;;;5036855;28;20191;-77
2021/10/13 08:38:55;;;;;;;37.13;27.13;;;10.10;99.90;;;;;;5034999;28;20168;-77
2021/10/13 08:41:21;;;;;;;47.80;30.10;;;10.20;99.90;;;;;;5040241;28;20538;-77
2021/10/13 08:43:47;;;;;;;37.63;27.43;;;10.20;99.90;;;;;;5034142;28;20805;-77
2021/10/13 08:46:13;;;;;;;44.43;31.07;;;10.20;99.90;;;;;;5036882;28;20433;-77
2021/10/13 08:48:39;;;;;;;44.00;29.80;;;10.20;99.90;;;;;;5035591;28;20524;-78
2021/10/13 08:51:05;;;;;;;40.63;29.10;;;10.20;99.90;;;;;;5040452;28;20849;-77
2021/10/13 08:53:31;;;;;;;42.30;29.17;;;10.30;99.90;;;;;;5034423;28;20550;-77
2021/10/13 08:55:56;;;;;;;43.70;30.10;;;10.30;99.90;;;;;;5036905;28;20262;-77
2021/10/13 08:58:26;;;;;;;42.27;31.17;;;10.40;99.90;;;;;;5037476;28;20628;-77
2021/10/13 09:01:10;;;;;;;50.57;30.80;;;10.40;99.90;;;;;;5041247;28;20639;-77
2021/10/13 09:06:24;;;;;;;44.30;31.57;;;10.50;99.90;;;;;;5119673;27;20543;-75
2021/10/13 09:09:10;;;;;;;44.60;28.90;;;10.70;99.90;;;;;;5096168;28;20502;-75
2021/10/13 09:22:06;;;;;;;45.40;28.37;;;10.90;99.90;;;;;;5066098;28;20909;-75
2021/10/13 09:24:38;;;;;;;36.37;26.20;;;11.00;99.90;;;;;;5068162;28;20418;-75
2021/10/13 09:27:26;;;;;;;36.87;27.07;;;11.10;99.90;;;;;;5057286;28;20422;-75
2021/10/13 09:30:09;;;;;;;39.30;29.53;;;11.10;99.90;;;;;;5057165;28;20426;-75
2021/10/13 09:32:41;;;;;;;41.23;28.83;;;11.20;99.90;;;;;;5061493;28;20468;-75
2021/10/13 09:35:07;;;;;;;45.90;30.83;;;11.20;99.90;;;;;;5058495;28;20779;-75
2021/10/13 09:37:50;;;;;;;44.10;31.53;;;11.30;99.90;;;;;;5056550;28;20415;-75
2021/10/13 09:40:29;;;;;;;47.63;32.33;;;11.40;99.90;;;;;;5057539;28;20743;-75
2021/10/13 09:42:58;;;;;;;44.57;31.80;;;11.50;99.90;;;;;;5059278;28;20776;-74
2021/10/13 09:45:27;;;;;;;50.33;33.67;;;11.50;99.90;;;;;;5049828;28;20473;-75
2021/10/13 09:48:03;;;;;;;44.93;32.93;;;11.70;99.90;;;;;;5052452;28;20468;-75
2021/10/13 09:50:50;;;;;;;49.23;33.20;;;11.80;99.90;;;;;;5053866;28;20418;-74
2021/10/13 09:55:52;;;;;;;44.23;32.00;;;11.90;99.90;;;;;;5104342;27;20535;-75
2021/10/13 10:01:08;;;;;;;45.77;30.97;;;12.00;99.90;;;;;;5063502;28;20526;-75
2021/10/13 10:03:36;;;;;;;41.97;30.40;;;12.00;99.90;;;;;;5048756;28;20414;-75
2021/10/13 10:06:04;;;;;;;40.53;31.47;;;12.00;99.90;;;;;;5040199;28;20459;-75
2021/10/13 10:08:49;;;;;;;43.57;30.70;;;12.00;99.90;;;;;;5047094;28;20433;-75
2021/10/13 10:11:27;;;;;;;47.90;33.17;;;12.10;99.90;;;;;;5041673;28;20410;-75
2021/10/13 10:13:53;;;;;;;44.43;29.67;;;12.10;99.90;;;;;;5048818;28;20423;-74
2021/10/13 10:16:31;;;;;;;47.93;30.67;;;12.10;99.90;;;;;;5031996;28;20442;-75
2021/10/13 10:19:17;;;;;;;41.73;32.37;;;12.20;99.90;;;;;;5030375;28;20205;-75
2021/10/13 10:24:29;;;;;;;48.63;32.40;;;12.10;99.90;;;;;;5049319;28;20673;-74
2021/10/13 10:27:32;;;;;;;40.97;31.90;;;12.10;99.90;;;;;;5047917;28;20403;-75
2021/10/13 10:30:15;;;;;;;41.53;30.77;;;12.10;99.90;;;;;;5044370;28;20713;-75
2021/10/13 10:32:44;;;;;;;43.20;31.47;;;12.00;99.90;;;;;;5044812;28;20426;-74
2021/10/13 10:35:13;;;;;;;37.03;28.13;;;12.00;99.90;;;;;;5047962;28;20415;-75
2021/10/13 10:37:48;;;;;;;40.30;30.93;;;11.90;99.90;;;;;;5049148;28;20747;-75
2021/10/13 10:42:57;;;;;;;37.20;28.07;;;11.90;99.90;;;;;;5048915;28;20898;-73
2021/10/13 10:45:26;;;;;;;37.33;28.70;;;11.90;99.90;;;;;;5049208;28;20387;-74
2021/10/13 10:50:46;;;;;;;29.87;24.73;;;11.80;99.90;;;;;;5050186;28;20978;-75
2021/10/13 10:53:33;;;;;;;33.50;24.73;;;11.80;99.90;;;;;;5058039;28;20406;-75
2021/10/13 10:56:21;;;;;;;28.90;24.27;;;11.80;99.90;;;;;;5048317;28;20390;-74
2021/10/13 10:59:08;;;;;;;34.77;26.57;;;11.80;99.90;;;;;;5037892;28;20498;-75
2021/10/13 11:01:35;;;;;;;27.97;24.93;;;11.90;99.90;;;;;;5047034;28;20926;-75
2021/10/13 11:04:10;;;;;;;28.10;24.43;;;12.00;99.90;;;;;;5048646;28;20950;-74
2021/10/13 11:06:38;;;;;;;27.80;22.90;;;12.10;99.90;;;;;;5048766;28;20867;-75
2021/10/13 11:09:09;;;;;;;33.87;27.20;;;12.30;99.90;;;;;;5034642;28;20495;-75
2021/10/13 11:19:35;;;;;;;25.93;22.57;;;12.70;99.90;;;;;;5011211;27;20549;-76
2021/10/13 11:22:05;;;;;;;27.97;25.07;;;13.00;99.90;;;;;;5024773;28;20434;-76
2021/10/13 11:24:33;;;;;;;29.67;26.83;;;12.90;99.90;;;;;;5025332;28;20900;-76
2021/10/13 11:26:59;;;;;;;27.63;24.93;;;12.90;99.90;;;;;;5016561;28;20421;-76
2021/10/13 11:29:27;;;;;;;33.10;28.90;;;12.90;99.90;;;;;;5024665;28;20779;-76
2021/10/13 11:32:11;;;;;;;32.27;26.97;;;12.90;99.90;;;;;;5014120;28;20677;-77
2021/10/13 11:34:38;;;;;;;27.07;24.23;;;12.90;99.90;;;;;;5008490;28;20436;-77
2021/10/13 11:37:04;;;;;;;28.37;25.30;;;12.70;99.90;;;;;;5048772;28;20451;-76
2021/10/13 11:39:33;;;;;;;26.40;23.73;;;12.70;99.90;;;;;;5008382;28;20932;-76
2021/10/13 11:42:00;;;;;;;28.87;23.73;;;12.60;99.90;;;;;;5008328;28;20955;-76
2021/10/13 11:44:27;;;;;;;27.60;24.80;;;12.50;99.90;;;;;;5008088;28;20428;-76
2021/10/13 11:49:53;;;;;;;24.63;22.23;;;12.50;99.90;;;;;;5066522;28;21109;-74
2021/10/13 11:52:19;;;;;;;24.80;22.20;;;12.40;99.90;;;;;;5047173;28;20442;-75
2021/10/13 11:54:45;;;;;;;25.00;21.60;;;12.30;99.90;;;;;;5044011;28;20965;-74
2021/10/13 11:57:13;;;;;;;22.50;19.40;;;12.30;99.90;;;;;;5043414;28;20415;-75
2021/10/13 11:59:39;;;;;;;21.97;19.50;;;12.30;99.90;;;;;;5047868;28;20199;-75
2021/10/13 12:02:20;;;;;;;18.93;15.43;;;12.30;99.90;;;;;;5047785;28;20845;-74
2021/10/13 12:04:48;;;;;;;20.83;15.10;;;12.40;99.90;;;;;;5038829;28;20234;-74
2021/10/13 12:07:16;;;;;;;14.30;11.03;;;12.40;99.90;;;;;;5047983;28;20428;-75
2021/10/13 12:09:46;;;;;;;15.37;9.97;;;12.50;99.90;;;;;;5045881;28;20427;-75
2021/10/13 12:12:12;;;;;;;11.10;9.37;;;12.60;99.90;;;;;;5043973;28;20427;-75
2021/10/13 12:14:38;;;;;;;9.93;7.60;;;12.70;99.90;;;;;;5040314;28;20478;-75
2021/10/13 12:17:03;;;;;;;10.17;6.63;;;12.80;99.90;;;;;;5040215;28;21022;-75
2021/10/13 12:19:42;;;;;;;6.90;5.33;;;12.90;99.90;;;;;;5044108;28;20258;-74
2021/10/13 12:22:07;;;;;;;9.40;6.10;;;13.10;99.90;;;;;;5045724;28;20605;-74
2021/10/13 12:24:35;;;;;;;7.87;6.17;;;13.20;99.90;;;;;;5044969;28;20427;-74
2021/10/13 12:27:01;;;;;;;11.43;5.97;;;13.20;99.90;;;;;;5048307;28;20218;-75
2021/10/13 12:29:37;;;;;;;8.37;6.10;;;13.20;99.90;;;;;;5047611;28;20470;-74
2021/10/13 12:34:53;;;;;;;6.97;5.80;;;13.40;99.90;;;;;;5086194;27;20526;-76
2021/10/13 12:37:24;;;;;;;7.03;5.37;;;13.50;99.90;;;;;;5084859;28;20410;-75
2021/10/13 12:39:49;;;;;;;8.13;5.60;;;13.50;99.90;;;;;;5079178;28;20459;-75
2021/10/13 12:42:15;;;;;;;8.43;4.70;;;13.60;99.90;;;;;;5074070;28;21036;-75
2021/10/13 12:44:42;;;;;;;10.73;5.90;;;13.60;99.90;;;;;;5066791;28;20173;-75
2021/10/13 12:49:47;;;;;;;10.97;6.43;;;13.70;99.90;;;;;;5054289;28;20538;-73
2021/10/13 12:52:23;;;;;;;11.40;6.40;;;13.70;99.90;;;;;;5047674;28;20442;-73
2021/10/13 12:54:51;;;;;;;11.10;6.00;;;13.70;99.90;;;;;;5048946;28;20913;-73
2021/10/13 12:57:20;;;;;;;8.07;5.50;;;13.80;99.90;;;;;;5046434;28;20427;-74
2021/10/13 12:59:47;;;;;;;11.00;5.90;;;13.80;99.90;;;;;;5046630;28;20516;-73
2021/10/13 13:02:14;;;;;;;10.97;5.13;;;13.80;99.90;;;;;;5046736;28;20454;-73
2021/10/13 13:04:39;;;;;;;5.83;4.97;;;13.80;99.90;;;;;;5047934;28;20469;-73
2021/10/13 13:07:09;;;;;;;7.60;4.80;;;13.80;99.90;;;;;;5048364;28;20420;-73
2021/10/13 13:09:35;;;;;;;8.47;5.53;;;13.80;99.90;;;;;;5048214;28;20190;-73
2021/10/13 13:12:01;;;;;;;9.40;5.57;;;13.70;99.90;;;;;;5052070;28;20409;-73
2021/10/13 13:14:26;;;;;;;9.47;5.17;;;13.70;99.90;;;;;;5057586;28;20498;-74
2021/10/13 13:16:52;;;;;;;8.77;5.10;;;13.70;99.90;;;;;;5047657;28;20167;-73
2021/10/13 13:19:18;;;;;;;9.40;5.33;;;13.70;99.90;;;;;;5050358;28;20271;-73
2021/10/13 13:21:45;;;;;;;5.47;4.37;;;13.70;99.90;;;;;;5048558;28;20231;-73
2021/10/13 13:24:11;;;;;;;7.60;4.90;;;13.70;99.90;;;;;;5047185;28;20188;-74
2021/10/13 13:26:37;;;;;;;8.77;5.10;;;13.80;99.90;;;;;;5051038;28;20438;-73
2021/10/13 13:29:03;;;;;;;9.53;4.83;;;13.80;99.90;;;;;;5066036;28;20796;-75
2021/10/13 13:31:29;;;;;;;7.40;4.40;;;13.80;99.90;;;;;;5052360;28;20933;-73
2021/10/13 13:33:54;;;;;;;9.87;4.30;;;13.80;99.90;;;;;;5052744;28;20482;-74
2021/10/13 13:36:21;;;;;;;7.57;4.57;;;13.80;99.90;;;;;;5047564;28;20187;-74